createdAt,value
2019-03-31T00:04:17.437Z,6.87
2019-03-31T00:09:21.050Z,7.27
2019-03-31T00:14:24.705Z,7.10
2019-03-31T00:19:28.290Z,7.73
2019-03-31T00:24:31.873Z,8.17
2019-03-31T00:29:35.531Z,7.93
2019-03-31T00:34:39.169Z,8.57
2019-03-31T00:39:43.229Z,7.97
2019-03-31T00:44:46.809Z,7.90
2019-03-31T00:49:50.405Z,7.40
2019-03-31T00:54:54.066Z,7.37
2019-03-31T00:59:57.656Z,7.33
2019-03-31T01:05:01.751Z,7.07
2019-03-31T01:10:06.851Z,7.57
2019-03-31T01:15:15.482Z,7.33
2019-03-31T01:20:19.283Z,6.60
2019-03-31T01:25:23.433Z,6.20
2019-03-31T01:30:27.233Z,7.20
2019-03-31T01:35:31.225Z,6.90
2019-03-31T01:40:35.050Z,7.20
2019-03-31T01:45:38.963Z,6.80
2019-03-31T01:50:42.948Z,7.20
2019-03-31T01:55:46.611Z,6.43
2019-03-31T02:00:51.911Z,6.33
2019-03-31T02:05:56.002Z,6.67
2019-03-31T02:10:59.922Z,6.93
2019-03-31T02:16:03.658Z,6.67
2019-03-31T02:21:07.318Z,6.77
2019-03-31T02:26:10.901Z,6.63
2019-03-31T02:31:14.938Z,6.30
2019-03-31T02:36:18.926Z,6.60
2019-03-31T02:41:22.995Z,6.23
2019-03-31T02:46:26.665Z,7.37
2019-03-31T02:51:31.234Z,7.40
2019-03-31T02:56:35.576Z,6.97
2019-03-31T03:01:40.394Z,7.53
2019-03-31T03:06:44.772Z,7.30
2019-03-31T03:11:50.990Z,7.63
2019-03-31T03:16:54.754Z,7.53
2019-03-31T03:21:58.336Z,7.70
2019-03-31T03:27:01.947Z,7.40
2019-03-31T03:32:05.684Z,7.43
2019-03-31T03:37:09.442Z,8.60
2019-03-31T03:42:13.022Z,7.90
2019-03-31T03:47:17.034Z,9.10
2019-03-31T03:52:21.045Z,8.80
2019-03-31T03:57:24.994Z,8.73
2019-03-31T04:02:28.585Z,8.03
2019-03-31T04:07:32.177Z,8.20
2019-03-31T04:12:35.773Z,8.93
2019-03-31T04:17:40.292Z,8.07
2019-03-31T04:22:43.875Z,8.43
2019-03-31T04:27:47.829Z,8.47
2019-03-31T04:32:51.759Z,8.10
2019-03-31T04:37:55.343Z,8.40
2019-03-31T04:42:59.000Z,8.90
2019-03-31T04:48:02.594Z,7.67
2019-03-31T04:53:06.184Z,10.87
2019-03-31T04:58:09.778Z,8.83
2019-03-31T05:03:13.350Z,8.30
2019-03-31T05:08:16.928Z,7.80
2019-03-31T05:13:20.593Z,7.50
2019-03-31T05:18:24.177Z,8.13
2019-03-31T05:23:27.826Z,7.23
2019-03-31T05:28:31.796Z,8.97
2019-03-31T05:33:35.461Z,8.43
2019-03-31T05:38:39.064Z,7.93
2019-03-31T05:43:42.986Z,7.97
2019-03-31T05:48:46.576Z,8.23
2019-03-31T05:53:50.148Z,7.90
2019-03-31T05:58:54.181Z,8.37
2019-03-31T06:03:57.841Z,8.93
2019-03-31T06:09:01.438Z,8.70
2019-03-31T06:14:05.265Z,8.00
2019-03-31T06:19:08.863Z,8.00
2019-03-31T06:24:12.814Z,9.10
2019-03-31T06:29:16.389Z,9.13
2019-03-31T06:34:19.969Z,9.10
2019-03-31T06:39:23.549Z,8.93
2019-03-31T06:44:27.132Z,7.73
2019-03-31T06:49:30.723Z,10.17
2019-03-31T06:54:34.304Z,9.63
2019-03-31T06:59:38.265Z,10.23
2019-03-31T07:04:42.198Z,20.13
2019-03-31T07:09:46.095Z,20.83
2019-03-31T07:14:49.756Z,15.77
2019-03-31T07:19:53.650Z,12.40
2019-03-31T07:24:57.362Z,10.33
2019-03-31T07:30:01.017Z,7.80
2019-03-31T07:35:17.797Z,7.20
2019-03-31T07:40:17.918Z,7.43
2019-03-31T07:45:22.085Z,8.43
2019-03-31T07:50:28.313Z,7.53
2019-03-31T07:55:30.933Z,8.03
2019-03-31T08:00:34.572Z,8.53
2019-03-31T08:05:38.158Z,8.93
2019-03-31T08:10:42.149Z,8.97
2019-03-31T08:15:46.052Z,10.00
2019-03-31T08:20:49.648Z,11.35
2019-03-31T08:25:53.242Z,10.43
2019-03-31T08:30:56.837Z,10.67
2019-03-31T08:36:00.424Z,9.93
2019-03-31T08:41:04.368Z,10.83
2019-03-31T08:46:08.330Z,10.40
2019-03-31T08:51:12.333Z,10.23
2019-03-31T08:56:15.925Z,10.30
2019-03-31T09:01:21.173Z,10.60
2019-03-31T09:06:25.146Z,10.33
2019-03-31T09:11:28.736Z,10.50
2019-03-31T09:16:32.348Z,12.00
2019-03-31T09:21:36.317Z,11.20
2019-03-31T09:26:39.913Z,10.83
2019-03-31T09:31:43.510Z,10.50
2019-03-31T09:36:47.416Z,10.97
2019-03-31T09:41:51.320Z,10.60
2019-03-31T09:46:54.912Z,11.27
2019-03-31T09:51:58.580Z,11.10
2019-03-31T09:57:02.186Z,11.13
2019-03-31T10:02:05.792Z,12.07
2019-03-31T10:07:09.520Z,11.73
2019-03-31T10:12:13.109Z,11.50
2019-03-31T10:17:17.124Z,11.23
2019-03-31T10:22:21.044Z,11.63
2019-03-31T10:27:24.643Z,11.57
2019-03-31T10:32:28.570Z,11.57
2019-03-31T10:37:32.164Z,11.43
2019-03-31T10:42:35.993Z,11.80
2019-03-31T10:47:39.581Z,10.70
2019-03-31T10:52:43.302Z,11.23
2019-03-31T10:57:46.931Z,12.03
2019-03-31T11:02:50.912Z,11.20
2019-03-31T11:07:54.855Z,11.13
2019-03-31T11:12:58.726Z,11.27
2019-03-31T11:18:02.310Z,11.47
2019-03-31T11:23:07.863Z,11.80
2019-03-31T11:28:11.884Z,11.17
2019-03-31T11:33:15.485Z,12.37
2019-03-31T11:38:19.073Z,11.90
2019-03-31T11:43:22.667Z,12.17
2019-03-31T11:48:26.259Z,11.33
2019-03-31T11:53:29.836Z,12.13
2019-03-31T11:58:33.446Z,12.73
2019-03-31T12:03:37.022Z,12.03
2019-03-31T12:08:40.617Z,13.30
2019-03-31T12:13:44.972Z,12.73
2019-03-31T12:18:48.936Z,13.47
2019-03-31T12:23:52.969Z,12.57
2019-03-31T12:28:56.561Z,13.47
2019-03-31T12:34:00.154Z,14.03
2019-03-31T12:39:06.333Z,13.40
2019-03-31T12:44:10.249Z,13.60
2019-03-31T12:49:14.150Z,12.37
2019-03-31T12:54:18.082Z,13.57
2019-03-31T12:59:22.143Z,12.47
2019-03-31T13:04:25.742Z,13.30
2019-03-31T13:09:29.343Z,12.67
2019-03-31T13:14:32.924Z,13.27
2019-03-31T13:19:36.899Z,14.17
2019-03-31T13:24:40.665Z,12.03
2019-03-31T13:29:44.245Z,12.50
2019-03-31T13:34:48.209Z,12.43
2019-03-31T13:39:51.803Z,12.00
2019-03-31T13:44:55.705Z,12.80
2019-03-31T13:49:59.307Z,11.73
2019-03-31T13:55:03.868Z,12.70
2019-03-31T14:00:09.980Z,13.90
2019-03-31T14:05:13.693Z,13.17
2019-03-31T14:10:17.367Z,12.57
2019-03-31T14:15:21.032Z,11.97
2019-03-31T14:20:24.619Z,12.73
2019-03-31T14:25:28.209Z,12.13
2019-03-31T14:30:31.858Z,12.07
2019-03-31T14:35:38.131Z,11.77
2019-03-31T14:40:41.236Z,9.67
2019-03-31T14:45:45.168Z,10.00
2019-03-31T14:50:48.749Z,9.07
2019-03-31T14:55:52.334Z,8.50
2019-03-31T15:00:56.211Z,7.90
2019-03-31T15:05:59.865Z,9.33
2019-03-31T15:11:03.457Z,8.90
2019-03-31T15:16:07.045Z,8.27
2019-03-31T15:21:10.648Z,8.83
2019-03-31T15:26:14.550Z,7.87
2019-03-31T15:31:18.133Z,7.53
2019-03-31T15:36:21.760Z,6.60
2019-03-31T15:41:25.408Z,7.10
2019-03-31T15:46:28.996Z,7.20
2019-03-31T15:51:32.974Z,6.70
2019-03-31T15:56:36.552Z,6.60
2019-03-31T16:01:40.743Z,6.50
2019-03-31T16:06:44.569Z,6.90
2019-03-31T16:11:53.861Z,7.00
2019-03-31T16:16:53.825Z,6.17
2019-03-31T16:21:57.641Z,5.47
2019-03-31T16:27:01.218Z,6.47
2019-03-31T16:32:04.952Z,5.93
2019-03-31T16:37:08.541Z,6.30
2019-03-31T16:42:12.158Z,5.47
2019-03-31T16:47:16.092Z,6.07
2019-03-31T16:52:19.668Z,6.70
2019-03-31T16:57:23.328Z,6.97
2019-03-31T17:02:27.370Z,13.30
2019-03-31T17:07:31.028Z,7.03
2019-03-31T17:12:34.720Z,6.80
2019-03-31T17:17:38.297Z,6.83
2019-03-31T17:22:42.275Z,6.37
2019-03-31T17:27:45.941Z,7.27
2019-03-31T17:32:49.594Z,6.53
2019-03-31T17:37:53.405Z,5.93
2019-03-31T17:42:57.015Z,8.27
2019-03-31T17:48:00.599Z,8.43
2019-03-31T17:53:04.241Z,7.60
2019-03-31T17:58:07.873Z,7.93
2019-03-31T18:03:11.607Z,7.17
2019-03-31T18:08:15.263Z,7.83
2019-03-31T18:13:18.854Z,8.80
2019-03-31T18:18:22.447Z,8.47
2019-03-31T18:23:26.108Z,7.50
2019-03-31T18:28:29.791Z,7.77
2019-03-31T18:33:33.377Z,8.87
2019-03-31T18:38:36.961Z,8.93
2019-03-31T18:43:51.337Z,9.30
2019-03-31T18:48:46.181Z,7.53
2019-03-31T18:54:06.823Z,6.67
2019-03-31T18:59:27.344Z,6.83
2019-03-31T19:04:35.304Z,7.47
2019-03-31T19:09:56.990Z,7.20
2019-03-31T19:15:08.607Z,7.03
2019-03-31T19:20:16.909Z,6.80
2019-03-31T19:25:31.108Z,6.60
2019-03-31T19:30:51.781Z,6.80
2019-03-31T19:36:13.451Z,6.20
2019-03-31T19:41:18.977Z,7.30
2019-03-31T19:46:30.143Z,6.80
2019-03-31T19:51:35.454Z,7.10
2019-03-31T19:56:56.949Z,6.97
2019-03-31T20:02:02.557Z,7.67
2019-03-31T20:07:17.026Z,8.33
2019-03-31T20:12:22.257Z,7.80
2019-03-31T20:17:27.485Z,8.13
2019-03-31T20:22:42.038Z,8.10
2019-03-31T20:27:59.831Z,8.57
2019-03-31T20:33:21.197Z,8.63
2019-03-31T20:38:42.875Z,8.20
2019-03-31T20:43:48.097Z,7.77
2019-03-31T20:48:52.588Z,8.47
2019-03-31T20:53:56.249Z,8.23
2019-03-31T20:58:59.834Z,8.53
2019-03-31T21:04:03.508Z,8.47
2019-03-31T21:09:08.714Z,8.53
2019-03-31T21:14:12.303Z,8.17
2019-03-31T21:19:19.035Z,7.80
2019-03-31T21:24:21.476Z,7.93
2019-03-31T21:29:25.133Z,8.13
2019-03-31T21:34:28.792Z,8.83
2019-03-31T21:39:32.733Z,8.87
2019-03-31T21:44:36.329Z,8.60
2019-03-31T21:49:39.999Z,8.60
2019-03-31T21:54:43.596Z,8.57
2019-03-31T21:59:47.414Z,8.13
2019-03-31T22:04:50.995Z,8.97
2019-03-31T22:09:54.610Z,9.23
2019-03-31T22:15:00.404Z,9.70
2019-03-31T22:20:05.985Z,9.57
2019-03-31T22:25:09.733Z,9.93
2019-03-31T22:30:13.881Z,9.80
2019-03-31T22:35:17.475Z,9.60
2019-03-31T22:40:21.133Z,9.53
2019-03-31T22:45:24.720Z,9.60
2019-03-31T22:50:28.306Z,9.80
2019-03-31T22:55:32.189Z,9.37
2019-03-31T23:00:36.021Z,9.13
2019-03-31T23:05:39.612Z,9.30
2019-03-31T23:10:43.260Z,9.17
2019-03-31T23:15:46.993Z,8.70
2019-03-31T23:20:50.585Z,8.07
2019-03-31T23:25:54.341Z,8.27
2019-03-31T23:30:57.901Z,8.00
2019-03-31T23:36:01.560Z,8.23
2019-03-31T23:41:05.170Z,7.60
2019-03-31T23:46:08.854Z,8.40
2019-03-31T23:51:12.434Z,8.13
2019-03-31T23:56:35.734Z,10.07
